sensor_id;sensor_type;location;lat;lon;timestamp;P1;durP1;ratioP1;P2;durP2;ratioP2
66830;SDS011;53739;44.224;22.528;2022-07-15T00:02:14;8.55;;;4.00;;
66830;SDS011;53739;44.224;22.528;2022-07-15T00:05:10;8.45;;;3.70;;
66830;SDS011;53739;44.224;22.528;2022-07-15T00:07:47;9.40;;;3.55;;
66830;SDS011;53739;44.224;22.528;2022-07-15T00:10:31;5.32;;;3.03;;
66830;SDS011;53739;44.224;22.528;2022-07-15T00:17:09;7.50;;;3.92;;
66830;SDS011;53739;44.224;22.528;2022-07-15T00:40:21;5.75;;;3.20;;
66830;SDS011;53739;44.224;22.528;2022-07-15T01:36:33;6.43;;;3.53;;
66830;SDS011;53739;44.224;22.528;2022-07-15T02:16:55;8.77;;;4.15;;
66830;SDS011;53739;44.224;22.528;2022-07-15T02:30:42;6.65;;;3.72;;
66830;SDS011;53739;44.224;22.528;2022-07-15T03:29:17;6.78;;;3.83;;
66830;SDS011;53739;44.224;22.528;2022-07-15T03:32:31;16.92;;;4.53;;
66830;SDS011;53739;44.224;22.528;2022-07-15T03:39:10;11.15;;;4.22;;
66830;SDS011;53739;44.224;22.528;2022-07-15T03:59:41;8.88;;;3.72;;
66830;SDS011;53739;44.224;22.528;2022-07-15T04:56:38;15.90;;;4.90;;
66830;SDS011;53739;44.224;22.528;2022-07-15T05:20:31;14.18;;;4.82;;
66830;SDS011;53739;44.224;22.528;2022-07-15T05:23:06;18.45;;;7.00;;
66830;SDS011;53739;44.224;22.528;2022-07-15T06:03:17;9.07;;;3.78;;
66830;SDS011;53739;44.224;22.528;2022-07-15T06:19:40;9.85;;;4.40;;
66830;SDS011;53739;44.224;22.528;2022-07-15T06:36:40;11.13;;;3.72;;
66830;SDS011;53739;44.224;22.528;2022-07-15T06:39:09;11.32;;;3.65;;
66830;SDS011;53739;44.224;22.528;2022-07-15T06:59:15;7.43;;;3.40;;
66830;SDS011;53739;44.224;22.528;2022-07-15T07:01:51;10.68;;;3.53;;
66830;SDS011;53739;44.224;22.528;2022-07-15T07:04:20;5.22;;;3.53;;
66830;SDS011;53739;44.224;22.528;2022-07-15T07:13:52;10.43;;;3.67;;
66830;SDS011;53739;44.224;22.528;2022-07-15T07:22:49;4.95;;;2.63;;
66830;SDS011;53739;44.224;22.528;2022-07-15T07:28:38;9.88;;;3.22;;
66830;SDS011;53739;44.224;22.528;2022-07-15T07:31:17;8.57;;;2.63;;
66830;SDS011;53739;44.224;22.528;2022-07-15T07:37:56;12.52;;;3.35;;
66830;SDS011;53739;44.224;22.528;2022-07-15T07:44:20;6.82;;;3.10;;
66830;SDS011;53739;44.224;22.528;2022-07-15T08:06:58;11.57;;;3.92;;
66830;SDS011;53739;44.224;22.528;2022-07-15T08:10:01;9.75;;;4.25;;
66830;SDS011;53739;44.224;22.528;2022-07-15T08:43:26;6.15;;;2.67;;
66830;SDS011;53739;44.224;22.528;2022-07-15T08:49:29;6.07;;;2.13;;
66830;SDS011;53739;44.224;22.528;2022-07-15T09:24:19;7.47;;;2.55;;
66830;SDS011;53739;44.224;22.528;2022-07-15T09:33:45;5.55;;;2.20;;
66830;SDS011;53739;44.224;22.528;2022-07-15T09:49:49;2.72;;;1.83;;
66830;SDS011;53739;44.224;22.528;2022-07-15T09:59:01;5.40;;;2.20;;
66830;SDS011;53739;44.224;22.528;2022-07-15T10:07:45;2.78;;;1.83;;
66830;SDS011;53739;44.224;22.528;2022-07-15T10:18:01;3.03;;;2.03;;
66830;SDS011;53739;44.224;22.528;2022-07-15T10:23:47;4.75;;;1.90;;
66830;SDS011;53739;44.224;22.528;2022-07-15T10:30:03;6.43;;;2.40;;
66830;SDS011;53739;44.224;22.528;2022-07-15T10:39:48;4.28;;;2.10;;
66830;SDS011;53739;44.224;22.528;2022-07-15T10:46:13;7.05;;;2.60;;
66830;SDS011;53739;44.224;22.528;2022-07-15T10:52:42;6.40;;;2.15;;
66830;SDS011;53739;44.224;22.528;2022-07-15T11:09:00;4.05;;;1.80;;
66830;SDS011;53739;44.224;22.528;2022-07-15T11:17:53;3.78;;;1.88;;
66830;SDS011;53739;44.224;22.528;2022-07-15T11:34:08;2.70;;;1.80;;
66830;SDS011;53739;44.224;22.528;2022-07-15T11:36:46;6.47;;;1.80;;
66830;SDS011;53739;44.224;22.528;2022-07-15T11:39:28;2.40;;;1.60;;
66830;SDS011;53739;44.224;22.528;2022-07-15T11:41:54;3.30;;;1.80;;
66830;SDS011;53739;44.224;22.528;2022-07-15T11:44:44;9.43;;;1.85;;
66830;SDS011;53739;44.224;22.528;2022-07-15T11:47:11;4.72;;;1.80;;
66830;SDS011;53739;44.224;22.528;2022-07-15T11:49:37;3.83;;;2.00;;
66830;SDS011;53739;44.224;22.528;2022-07-15T11:52:54;8.65;;;1.80;;
66830;SDS011;53739;44.224;22.528;2022-07-15T12:01:22;2.50;;;1.70;;
66830;SDS011;53739;44.224;22.528;2022-07-15T12:04:02;10.00;;;2.15;;
66830;SDS011;53739;44.224;22.528;2022-07-15T12:06:35;3.95;;;1.80;;
66830;SDS011;53739;44.224;22.528;2022-07-15T12:15:39;11.57;;;2.10;;
66830;SDS011;53739;44.224;22.528;2022-07-15T12:18:45;4.85;;;1.70;;
66830;SDS011;53739;44.224;22.528;2022-07-15T12:21:25;4.10;;;2.03;;
66830;SDS011;53739;44.224;22.528;2022-07-15T12:55:42;4.40;;;1.98;;
66830;SDS011;53739;44.224;22.528;2022-07-15T13:02:11;7.75;;;1.83;;
66830;SDS011;53739;44.224;22.528;2022-07-15T13:04:37;4.30;;;1.70;;
66830;SDS011;53739;44.224;22.528;2022-07-15T13:10:13;5.03;;;2.10;;
66830;SDS011;53739;44.224;22.528;2022-07-15T13:16:29;3.00;;;1.70;;
66830;SDS011;53739;44.224;22.528;2022-07-15T13:36:00;4.55;;;1.70;;
66830;SDS011;53739;44.224;22.528;2022-07-15T13:42:28;4.18;;;2.35;;
66830;SDS011;53739;44.224;22.528;2022-07-15T13:49:00;3.33;;;1.75;;
66830;SDS011;53739;44.224;22.528;2022-07-15T13:58:21;3.53;;;1.60;;
66830;SDS011;53739;44.224;22.528;2022-07-15T14:04:12;7.22;;;1.90;;
66830;SDS011;53739;44.224;22.528;2022-07-15T14:06:50;4.40;;;1.80;;
66830;SDS011;53739;44.224;22.528;2022-07-15T14:16:15;5.38;;;1.88;;
66830;SDS011;53739;44.224;22.528;2022-07-15T14:18:43;4.68;;;1.85;;
66830;SDS011;53739;44.224;22.528;2022-07-15T14:25:15;6.95;;;1.77;;
66830;SDS011;53739;44.224;22.528;2022-07-15T14:27:40;5.88;;;2.03;;
66830;SDS011;53739;44.224;22.528;2022-07-15T14:30:26;4.20;;;1.60;;
66830;SDS011;53739;44.224;22.528;2022-07-15T14:33:11;2.50;;;1.55;;
66830;SDS011;53739;44.224;22.528;2022-07-15T14:35:47;3.05;;;1.73;;
66830;SDS011;53739;44.224;22.528;2022-07-15T14:38:14;2.67;;;1.60;;
66830;SDS011;53739;44.224;22.528;2022-07-15T14:40:42;7.13;;;2.00;;
66830;SDS011;53739;44.224;22.528;2022-07-15T14:43:17;9.38;;;1.90;;
66830;SDS011;53739;44.224;22.528;2022-07-15T14:45:55;3.00;;;1.90;;
66830;SDS011;53739;44.224;22.528;2022-07-15T14:48:24;3.78;;;1.75;;
66830;SDS011;53739;44.224;22.528;2022-07-15T14:51:19;3.38;;;1.77;;
66830;SDS011;53739;44.224;22.528;2022-07-15T14:54:27;3.90;;;1.80;;
66830;SDS011;53739;44.224;22.528;2022-07-15T14:57:11;5.13;;;2.30;;
66830;SDS011;53739;44.224;22.528;2022-07-15T15:03:10;4.40;;;1.87;;
66830;SDS011;53739;44.224;22.528;2022-07-15T15:05:36;3.42;;;1.80;;
66830;SDS011;53739;44.224;22.528;2022-07-15T15:08:01;3.47;;;1.77;;
66830;SDS011;53739;44.224;22.528;2022-07-15T15:10:27;3.67;;;2.08;;
66830;SDS011;53739;44.224;22.528;2022-07-15T15:12:53;4.30;;;2.00;;
66830;SDS011;53739;44.224;22.528;2022-07-15T15:15:19;3.83;;;1.85;;
66830;SDS011;53739;44.224;22.528;2022-07-15T15:17:47;7.57;;;1.80;;
66830;SDS011;53739;44.224;22.528;2022-07-15T15:20:13;7.80;;;2.10;;
66830;SDS011;53739;44.224;22.528;2022-07-15T15:22:38;2.40;;;1.58;;
66830;SDS011;53739;44.224;22.528;2022-07-15T15:25:06;7.57;;;2.00;;
66830;SDS011;53739;44.224;22.528;2022-07-15T15:27:33;4.07;;;2.00;;
66830;SDS011;53739;44.224;22.528;2022-07-15T15:30:02;4.75;;;2.28;;
66830;SDS011;53739;44.224;22.528;2022-07-15T15:32:29;5.90;;;1.80;;
66830;SDS011;53739;44.224;22.528;2022-07-15T15:34:55;7.63;;;1.83;;
66830;SDS011;53739;44.224;22.528;2022-07-15T15:37:21;3.53;;;1.70;;
66830;SDS011;53739;44.224;22.528;2022-07-15T15:39:47;3.75;;;1.90;;
66830;SDS011;53739;44.224;22.528;2022-07-15T15:42:13;6.10;;;2.20;;
66830;SDS011;53739;44.224;22.528;2022-07-15T15:44:40;3.85;;;1.90;;
66830;SDS011;53739;44.224;22.528;2022-07-15T15:47:06;3.50;;;1.75;;
66830;SDS011;53739;44.224;22.528;2022-07-15T15:49:33;6.25;;;1.95;;
66830;SDS011;53739;44.224;22.528;2022-07-15T15:52:01;8.93;;;2.00;;
66830;SDS011;53739;44.224;22.528;2022-07-15T15:54:30;6.10;;;1.80;;
66830;SDS011;53739;44.224;22.528;2022-07-15T15:56:59;5.75;;;1.73;;
66830;SDS011;53739;44.224;22.528;2022-07-15T15:59:42;5.20;;;2.03;;
66830;SDS011;53739;44.224;22.528;2022-07-15T16:06:07;6.18;;;3.13;;
66830;SDS011;53739;44.224;22.528;2022-07-15T16:08:34;4.78;;;2.10;;
66830;SDS011;53739;44.224;22.528;2022-07-15T16:11:00;5.88;;;2.08;;
66830;SDS011;53739;44.224;22.528;2022-07-15T16:13:35;6.55;;;2.17;;
66830;SDS011;53739;44.224;22.528;2022-07-15T16:16:04;3.38;;;2.00;;
66830;SDS011;53739;44.224;22.528;2022-07-15T16:19:02;5.55;;;2.20;;
66830;SDS011;53739;44.224;22.528;2022-07-15T16:21:36;5.50;;;2.40;;
66830;SDS011;53739;44.224;22.528;2022-07-15T16:27:52;9.52;;;2.67;;
66830;SDS011;53739;44.224;22.528;2022-07-15T16:30:20;7.88;;;2.40;;
66830;SDS011;53739;44.224;22.528;2022-07-15T16:32:52;6.40;;;3.03;;
66830;SDS011;53739;44.224;22.528;2022-07-15T16:35:19;3.50;;;2.40;;
66830;SDS011;53739;44.224;22.528;2022-07-15T16:37:47;6.45;;;2.40;;
66830;SDS011;53739;44.224;22.528;2022-07-15T16:40:14;7.35;;;2.50;;
66830;SDS011;53739;44.224;22.528;2022-07-15T16:42:59;5.88;;;2.30;;
66830;SDS011;53739;44.224;22.528;2022-07-15T16:45:32;7.20;;;2.47;;
66830;SDS011;53739;44.224;22.528;2022-07-15T16:47:58;9.02;;;2.50;;
66830;SDS011;53739;44.224;22.528;2022-07-15T16:50:32;5.65;;;2.60;;
66830;SDS011;53739;44.224;22.528;2022-07-15T16:56:20;7.55;;;2.88;;
66830;SDS011;53739;44.224;22.528;2022-07-15T16:58:46;3.92;;;2.22;;
66830;SDS011;53739;44.224;22.528;2022-07-15T17:01:12;6.88;;;2.72;;
66830;SDS011;53739;44.224;22.528;2022-07-15T17:03:38;6.97;;;2.70;;
66830;SDS011;53739;44.224;22.528;2022-07-15T17:06:04;6.82;;;2.90;;
66830;SDS011;53739;44.224;22.528;2022-07-15T17:08:30;6.13;;;2.35;;
66830;SDS011;53739;44.224;22.528;2022-07-15T17:10:55;3.55;;;2.53;;
66830;SDS011;53739;44.224;22.528;2022-07-15T17:13:21;9.50;;;3.00;;
66830;SDS011;53739;44.224;22.528;2022-07-15T17:15:47;6.88;;;2.38;;
66830;SDS011;53739;44.224;22.528;2022-07-15T17:18:13;8.02;;;2.85;;
66830;SDS011;53739;44.224;22.528;2022-07-15T17:20:39;7.00;;;2.85;;
66830;SDS011;53739;44.224;22.528;2022-07-15T17:23:05;11.20;;;3.20;;
66830;SDS011;53739;44.224;22.528;2022-07-15T17:25:31;6.15;;;2.58;;
66830;SDS011;53739;44.224;22.528;2022-07-15T17:27:57;9.10;;;3.25;;
66830;SDS011;53739;44.224;22.528;2022-07-15T17:30:23;8.18;;;3.20;;
66830;SDS011;53739;44.224;22.528;2022-07-15T17:32:55;6.53;;;3.15;;
66830;SDS011;53739;44.224;22.528;2022-07-15T17:35:21;4.70;;;2.70;;
66830;SDS011;53739;44.224;22.528;2022-07-15T17:41:05;4.97;;;3.30;;
66830;SDS011;53739;44.224;22.528;2022-07-15T17:43:45;5.28;;;3.28;;
66830;SDS011;53739;44.224;22.528;2022-07-15T17:46:14;8.25;;;3.47;;
66830;SDS011;53739;44.224;22.528;2022-07-15T17:51:58;6.22;;;3.95;;
66830;SDS011;53739;44.224;22.528;2022-07-15T17:54:27;7.28;;;3.60;;
66830;SDS011;53739;44.224;22.528;2022-07-15T17:56:58;8.35;;;3.85;;
66830;SDS011;53739;44.224;22.528;2022-07-15T17:59:30;10.85;;;3.83;;
66830;SDS011;53739;44.224;22.528;2022-07-15T18:02:43;7.10;;;3.47;;
66830;SDS011;53739;44.224;22.528;2022-07-15T18:08:10;10.45;;;4.10;;
66830;SDS011;53739;44.224;22.528;2022-07-15T18:17:58;8.35;;;3.90;;
66830;SDS011;53739;44.224;22.528;2022-07-15T18:20:31;5.10;;;3.50;;
66830;SDS011;53739;44.224;22.528;2022-07-15T18:23:21;11.55;;;4.07;;
66830;SDS011;53739;44.224;22.528;2022-07-15T18:29:16;7.82;;;4.30;;
66830;SDS011;53739;44.224;22.528;2022-07-15T18:32:14;6.63;;;4.45;;
66830;SDS011;53739;44.224;22.528;2022-07-15T18:52:04;13.70;;;6.50;;
66830;SDS011;53739;44.224;22.528;2022-07-15T18:54:33;14.15;;;7.40;;
66830;SDS011;53739;44.224;22.528;2022-07-15T18:57:04;13.68;;;7.47;;
66830;SDS011;53739;44.224;22.528;2022-07-15T18:59:58;22.02;;;8.73;;
66830;SDS011;53739;44.224;22.528;2022-07-15T19:03:19;12.70;;;5.63;;
66830;SDS011;53739;44.224;22.528;2022-07-15T19:06:07;7.35;;;4.78;;
66830;SDS011;53739;44.224;22.528;2022-07-15T19:19:19;9.05;;;4.03;;
66830;SDS011;53739;44.224;22.528;2022-07-15T19:25:55;20.10;;;5.07;;
66830;SDS011;53739;44.224;22.528;2022-07-15T19:29:03;11.00;;;3.92;;
66830;SDS011;53739;44.224;22.528;2022-07-15T19:31:32;10.25;;;4.32;;
66830;SDS011;53739;44.224;22.528;2022-07-15T19:34:47;9.38;;;3.85;;
66830;SDS011;53739;44.224;22.528;2022-07-15T19:40:42;5.53;;;3.50;;
66830;SDS011;53739;44.224;22.528;2022-07-15T19:43:53;8.23;;;3.75;;
66830;SDS011;53739;44.224;22.528;2022-07-15T19:49:36;6.57;;;3.83;;
66830;SDS011;53739;44.224;22.528;2022-07-15T20:00:55;6.85;;;4.13;;
66830;SDS011;53739;44.224;22.528;2022-07-15T20:03:44;8.95;;;4.28;;
66830;SDS011;53739;44.224;22.528;2022-07-15T20:06:32;9.48;;;4.68;;
66830;SDS011;53739;44.224;22.528;2022-07-15T20:09:00;5.45;;;4.03;;
66830;SDS011;53739;44.224;22.528;2022-07-15T20:11:35;5.88;;;4.85;;
66830;SDS011;53739;44.224;22.528;2022-07-15T20:14:01;8.30;;;5.22;;
66830;SDS011;53739;44.224;22.528;2022-07-15T20:16:41;9.80;;;5.40;;
66830;SDS011;53739;44.224;22.528;2022-07-15T20:19:27;6.22;;;5.15;;
66830;SDS011;53739;44.224;22.528;2022-07-15T20:21:56;8.00;;;5.40;;
66830;SDS011;53739;44.224;22.528;2022-07-15T20:34:35;9.00;;;4.72;;
66830;SDS011;53739;44.224;22.528;2022-07-15T20:58:53;9.23;;;4.20;;
66830;SDS011;53739;44.224;22.528;2022-07-15T21:02:00;6.57;;;4.10;;
66830;SDS011;53739;44.224;22.528;2022-07-15T21:08:10;8.18;;;4.28;;
66830;SDS011;53739;44.224;22.528;2022-07-15T21:21:10;10.55;;;4.45;;
66830;SDS011;53739;44.224;22.528;2022-07-15T21:23:39;7.43;;;4.40;;
66830;SDS011;53739;44.224;22.528;2022-07-15T21:26:08;7.72;;;4.68;;
66830;SDS011;53739;44.224;22.528;2022-07-15T21:28:55;8.20;;;4.45;;
66830;SDS011;53739;44.224;22.528;2022-07-15T21:31:21;8.57;;;4.95;;
66830;SDS011;53739;44.224;22.528;2022-07-15T21:33:50;19.33;;;5.35;;
66830;SDS011;53739;44.224;22.528;2022-07-15T21:36:15;11.98;;;5.03;;
66830;SDS011;53739;44.224;22.528;2022-07-15T21:38:42;14.63;;;5.25;;
66830;SDS011;53739;44.224;22.528;2022-07-15T21:41:17;12.73;;;5.80;;
66830;SDS011;53739;44.224;22.528;2022-07-15T21:43:43;17.05;;;6.05;;
66830;SDS011;53739;44.224;22.528;2022-07-15T21:46:18;10.45;;;5.32;;
66830;SDS011;53739;44.224;22.528;2022-07-15T21:48:44;9.13;;;5.65;;
66830;SDS011;53739;44.224;22.528;2022-07-15T21:51:12;12.80;;;5.47;;
66830;SDS011;53739;44.224;22.528;2022-07-15T21:53:41;8.00;;;6.00;;
66830;SDS011;53739;44.224;22.528;2022-07-15T21:56:13;7.63;;;5.10;;
66830;SDS011;53739;44.224;22.528;2022-07-15T21:58:42;13.65;;;5.68;;
66830;SDS011;53739;44.224;22.528;2022-07-15T22:01:09;11.65;;;5.28;;
66830;SDS011;53739;44.224;22.528;2022-07-15T22:03:37;13.55;;;5.78;;
66830;SDS011;53739;44.224;22.528;2022-07-15T22:06:09;7.80;;;4.90;;
66830;SDS011;53739;44.224;22.528;2022-07-15T22:08:38;9.00;;;4.03;;
66830;SDS011;53739;44.224;22.528;2022-07-15T22:11:04;8.23;;;4.85;;
66830;SDS011;53739;44.224;22.528;2022-07-15T22:16:15;5.85;;;4.40;;
66830;SDS011;53739;44.224;22.528;2022-07-15T22:18:43;12.25;;;4.45;;
66830;SDS011;53739;44.224;22.528;2022-07-15T22:21:14;8.95;;;5.15;;
66830;SDS011;53739;44.224;22.528;2022-07-15T22:23:40;7.85;;;5.07;;
66830;SDS011;53739;44.224;22.528;2022-07-15T22:26:06;9.55;;;4.88;;
66830;SDS011;53739;44.224;22.528;2022-07-15T22:28:32;10.27;;;5.30;;
66830;SDS011;53739;44.224;22.528;2022-07-15T22:30:58;10.02;;;4.57;;
66830;SDS011;53739;44.224;22.528;2022-07-15T22:33:27;9.98;;;4.60;;
66830;SDS011;53739;44.224;22.528;2022-07-15T22:35:55;7.18;;;5.22;;
66830;SDS011;53739;44.224;22.528;2022-07-15T22:38:21;9.82;;;4.85;;
66830;SDS011;53739;44.224;22.528;2022-07-15T22:40:47;6.53;;;4.45;;
66830;SDS011;53739;44.224;22.528;2022-07-15T22:43:13;6.57;;;4.55;;
66830;SDS011;53739;44.224;22.528;2022-07-15T22:45:43;7.45;;;4.63;;
66830;SDS011;53739;44.224;22.528;2022-07-15T22:48:12;8.15;;;5.00;;
66830;SDS011;53739;44.224;22.528;2022-07-15T22:50:40;10.55;;;5.45;;
66830;SDS011;53739;44.224;22.528;2022-07-15T22:53:07;9.13;;;5.43;;
66830;SDS011;53739;44.224;22.528;2022-07-15T22:55:33;10.63;;;5.10;;
66830;SDS011;53739;44.224;22.528;2022-07-15T22:57:59;8.48;;;5.32;;
66830;SDS011;53739;44.224;22.528;2022-07-15T23:00:26;9.00;;;5.20;;
66830;SDS011;53739;44.224;22.528;2022-07-15T23:02:55;8.50;;;5.35;;
66830;SDS011;53739;44.224;22.528;2022-07-15T23:05:27;7.78;;;5.35;;
66830;SDS011;53739;44.224;22.528;2022-07-15T23:08:04;8.18;;;5.32;;
66830;SDS011;53739;44.224;22.528;2022-07-15T23:10:32;7.68;;;5.13;;
66830;SDS011;53739;44.224;22.528;2022-07-15T23:15:40;8.18;;;4.90;;
66830;SDS011;53739;44.224;22.528;2022-07-15T23:18:15;6.13;;;4.55;;
66830;SDS011;53739;44.224;22.528;2022-07-15T23:20:43;8.88;;;5.00;;
66830;SDS011;53739;44.224;22.528;2022-07-15T23:23:14;7.75;;;5.22;;
66830;SDS011;53739;44.224;22.528;2022-07-15T23:25:44;5.97;;;4.25;;
66830;SDS011;53739;44.224;22.528;2022-07-15T23:28:10;6.88;;;4.80;;
66830;SDS011;53739;44.224;22.528;2022-07-15T23:30:38;5.93;;;4.32;;
66830;SDS011;53739;44.224;22.528;2022-07-15T23:33:07;8.02;;;4.53;;
66830;SDS011;53739;44.224;22.528;2022-07-15T23:35:33;8.73;;;4.93;;
66830;SDS011;53739;44.224;22.528;2022-07-15T23:37:59;8.18;;;4.63;;
66830;SDS011;53739;44.224;22.528;2022-07-15T23:40:28;6.45;;;4.25;;
66830;SDS011;53739;44.224;22.528;2022-07-15T23:42:56;9.43;;;4.32;;
66830;SDS011;53739;44.224;22.528;2022-07-15T23:45:26;7.45;;;4.55;;
66830;SDS011;53739;44.224;22.528;2022-07-15T23:47:52;5.15;;;3.88;;
66830;SDS011;53739;44.224;22.528;2022-07-15T23:50:21;7.43;;;4.20;;
66830;SDS011;53739;44.224;22.528;2022-07-15T23:52:49;8.63;;;4.35;;
66830;SDS011;53739;44.224;22.528;2022-07-15T23:57:46;6.97;;;4.18;;
